createdAt,value
2018-07-09T00:00:43.549Z,21.60
2018-07-09T00:03:17.353Z,21.50
2018-07-09T00:05:52.081Z,21.40
2018-07-09T00:08:24.675Z,21.30
2018-07-09T00:11:04.625Z,21.20
2018-07-09T00:13:38.840Z,21.40
2018-07-09T00:16:17.675Z,21.40
2018-07-09T00:18:51.263Z,21.30
2018-07-09T00:21:24.151Z,21.20
2018-07-09T00:23:58.060Z,21.30
2018-07-09T00:26:31.658Z,21.10
2018-07-09T00:29:07.716Z,21.10
2018-07-09T00:31:41.190Z,21.00
2018-07-09T00:34:14.207Z,20.90
2018-07-09T00:36:48.112Z,20.90
2018-07-09T00:39:19.261Z,21.00
2018-07-09T00:41:53.780Z,20.70
2018-07-09T00:44:28.513Z,20.60
2018-07-09T00:47:01.165Z,20.60
2018-07-09T00:49:34.801Z,20.50
2018-07-09T00:52:07.071Z,20.50
2018-07-09T00:54:40.161Z,20.40
2018-07-09T00:57:12.908Z,20.30
2018-07-09T00:59:46.018Z,20.30
2018-07-09T01:05:41.149Z,20.20
2018-07-09T01:08:16.293Z,20.10
2018-07-09T01:10:59.215Z,20.00
2018-07-09T01:13:48.481Z,20.00
2018-07-09T01:16:21.592Z,19.90
2018-07-09T01:18:54.462Z,19.90
2018-07-09T01:21:28.447Z,19.90
2018-07-09T01:24:01.760Z,19.80
2018-07-09T01:26:34.642Z,19.80
2018-07-09T01:29:05.174Z,19.80
2018-07-09T01:31:35.395Z,19.80
2018-07-09T01:36:59.082Z,19.80
2018-07-09T01:39:31.958Z,19.80
2018-07-09T01:59:25.546Z,19.40
2018-07-09T02:01:57.611Z,19.30
2018-07-09T02:04:29.984Z,19.30
2018-07-09T02:07:05.019Z,19.40
2018-07-09T02:09:37.882Z,19.40
2018-07-09T02:12:11.094Z,19.40
2018-07-09T02:14:45.312Z,19.50
2018-07-09T02:17:27.091Z,19.50
2018-07-09T02:20:00.190Z,19.30
2018-07-09T02:22:33.146Z,19.30
2018-07-09T02:25:06.257Z,19.30
2018-07-09T02:27:39.563Z,19.30
2018-07-09T02:30:12.547Z,19.20
2018-07-09T02:32:45.435Z,19.30
2018-07-09T02:35:18.725Z,19.20
2018-07-09T02:37:52.478Z,19.10
2018-07-09T02:40:24.565Z,19.10
2018-07-09T02:42:56.648Z,19.00
2018-07-09T02:45:27.551Z,19.00
2018-07-09T02:48:00.064Z,18.90
2018-07-09T02:50:31.439Z,18.90
2018-07-09T02:53:04.426Z,18.90
2018-07-09T02:55:37.003Z,18.90
2018-07-09T02:58:09.069Z,18.90
2018-07-09T03:00:42.043Z,18.90
2018-07-09T03:06:40.564Z,18.80
2018-07-09T03:09:30.634Z,19.00
2018-07-09T03:11:58.498Z,18.80
2018-07-09T03:14:35.093Z,18.80
2018-07-09T03:17:10.765Z,18.50
2018-07-09T03:19:38.535Z,18.70
2018-07-09T03:22:09.697Z,18.60
2018-07-09T03:24:37.489Z,18.60
2018-07-09T03:27:05.421Z,18.60
2018-07-09T03:29:35.249Z,18.70
2018-07-09T03:32:03.109Z,18.60
2018-07-09T03:34:44.412Z,18.60
2018-07-09T03:37:13.310Z,18.50
2018-07-09T03:39:41.262Z,18.50
2018-07-09T03:42:09.093Z,18.40
2018-07-09T03:44:37.073Z,18.40
2018-07-09T03:47:05.153Z,18.40
2018-07-09T03:49:33.070Z,18.40
2018-07-09T03:52:00.873Z,18.30
2018-07-09T03:54:28.653Z,18.30
2018-07-09T03:56:57.076Z,18.30
2018-07-09T03:59:25.193Z,18.30
2018-07-09T04:01:52.985Z,18.20
2018-07-09T04:04:48.288Z,18.20
2018-07-09T04:07:16.405Z,18.30
2018-07-09T04:09:44.161Z,18.30
2018-07-09T04:22:17.990Z,18.20
2018-07-09T04:24:45.784Z,18.30
2018-07-09T04:27:13.621Z,18.20
2018-07-09T04:29:41.457Z,18.30
2018-07-09T04:32:09.414Z,18.20
2018-07-09T04:34:45.589Z,18.20
2018-07-09T04:37:13.459Z,18.30
2018-07-09T04:39:41.354Z,18.30
2018-07-09T04:42:09.154Z,18.30
2018-07-09T04:44:36.918Z,18.40
2018-07-09T04:47:04.791Z,18.40
2018-07-09T04:49:32.602Z,18.50
2018-07-09T04:52:00.353Z,18.70
2018-07-09T04:54:28.138Z,18.70
2018-07-09T04:56:55.961Z,18.90
2018-07-09T04:59:23.747Z,18.80
2018-07-09T05:01:51.497Z,19.10
2018-07-09T05:04:19.370Z,19.10
2018-07-09T05:06:47.162Z,19.00
2018-07-09T05:09:15.001Z,19.10
2018-07-09T05:11:50.133Z,19.20
2018-07-09T05:14:18.057Z,19.10
2018-07-09T05:16:45.879Z,19.30
2018-07-09T05:19:15.867Z,19.20
2018-07-09T05:21:43.826Z,19.20
2018-07-09T05:24:11.640Z,19.30
2018-07-09T05:26:39.426Z,19.40
2018-07-09T05:29:07.232Z,19.50
2018-07-09T05:31:35.059Z,19.50
2018-07-09T05:34:02.897Z,19.60
2018-07-09T05:36:30.685Z,19.50
2018-07-09T05:39:04.845Z,19.50
2018-07-09T05:41:32.651Z,19.90
2018-07-09T05:44:00.497Z,20.00
2018-07-09T05:46:28.346Z,20.00
2018-07-09T05:48:57.105Z,20.00
2018-07-09T05:51:24.880Z,20.00
2018-07-09T05:53:52.753Z,20.00
2018-07-09T05:56:20.557Z,20.30
2018-07-09T05:58:49.747Z,20.60
2018-07-09T06:01:17.747Z,20.90
2018-07-09T06:03:46.601Z,20.90
2018-07-09T06:06:14.658Z,21.10
2018-07-09T06:08:42.447Z,21.40
2018-07-09T06:11:10.275Z,21.40
2018-07-09T06:13:38.046Z,21.50
2018-07-09T06:16:06.245Z,22.00
2018-07-09T06:18:34.321Z,22.00
2018-07-09T06:21:02.093Z,22.50
2018-07-09T06:23:29.853Z,22.60
2018-07-09T06:25:58.029Z,22.70
2018-07-09T06:28:25.925Z,23.00
2018-07-09T06:30:53.755Z,23.20
2018-07-09T06:33:21.879Z,23.50
2018-07-09T06:35:49.669Z,23.80
2018-07-09T06:38:17.565Z,23.80
2018-07-09T06:40:45.977Z,24.00
2018-07-09T06:43:13.761Z,24.20
2018-07-09T06:45:41.793Z,24.50
2018-07-09T06:48:09.617Z,24.70
2018-07-09T06:50:37.389Z,25.00
2018-07-09T06:53:05.460Z,25.40
2018-07-09T06:55:33.220Z,25.70
2018-07-09T06:58:01.073Z,26.00
2018-07-09T07:00:28.846Z,26.40
2018-07-09T07:02:57.318Z,26.70
2018-07-09T07:05:25.162Z,27.00
2018-07-09T07:07:53.041Z,27.30
2018-07-09T07:10:20.830Z,27.60
2018-07-09T07:12:48.625Z,28.00
2018-07-09T07:15:24.549Z,28.30
2018-07-09T07:17:52.326Z,28.60
2018-07-09T07:20:20.163Z,29.00
2018-07-09T07:22:47.980Z,29.30
2018-07-09T07:25:15.838Z,29.50
2018-07-09T07:27:43.744Z,29.80
2018-07-09T07:30:11.540Z,30.10
2018-07-09T07:32:39.444Z,30.30
2018-07-09T07:35:07.321Z,30.40
2018-07-09T07:37:35.163Z,30.50
2018-07-09T07:40:03.237Z,30.70
2018-07-09T07:42:31.124Z,30.90
2018-07-09T07:45:01.379Z,31.00
2018-07-09T07:47:29.273Z,31.10
2018-07-09T07:49:57.072Z,31.30
2018-07-09T07:52:24.893Z,31.30
2018-07-09T07:54:52.677Z,31.30
2018-07-09T07:57:20.481Z,31.50
2018-07-09T07:59:48.277Z,31.50
2018-07-09T08:02:16.293Z,31.50
2018-07-09T08:04:44.071Z,31.60
2018-07-09T08:07:11.884Z,31.60
2018-07-09T08:09:39.813Z,31.70
2018-07-09T08:13:00.542Z,31.70
2018-07-09T08:14:35.528Z,31.70
2018-07-09T08:17:03.301Z,31.80
2018-07-09T08:19:31.117Z,31.80
2018-07-09T08:21:58.961Z,31.80
2018-07-09T08:24:31.448Z,31.90
2018-07-09T08:27:08.208Z,31.80
2018-07-09T08:29:36.009Z,32.00
2018-07-09T08:32:12.565Z,32.10
2018-07-09T08:34:40.354Z,32.10
2018-07-09T08:37:08.141Z,32.10
2018-07-09T08:39:35.909Z,32.20
2018-07-09T08:42:03.784Z,32.20
2018-07-09T08:44:31.577Z,32.30
2018-07-09T08:46:59.438Z,32.30
2018-07-09T08:49:27.234Z,32.30
2018-07-09T08:51:55.023Z,32.70
2018-07-09T08:54:30.997Z,32.60
2018-07-09T08:57:02.265Z,32.60
2018-07-09T08:59:34.436Z,32.80
2018-07-09T09:02:05.568Z,32.90
2018-07-09T09:04:38.433Z,33.00
2018-07-09T09:07:11.241Z,33.20
2018-07-09T09:09:45.050Z,33.40
2018-07-09T09:12:17.524Z,33.60
2018-07-09T09:14:48.872Z,33.60
2018-07-09T09:17:21.655Z,33.80
2018-07-09T09:19:54.340Z,33.80
2018-07-09T09:22:25.685Z,33.80
2018-07-09T09:25:00.782Z,33.90
2018-07-09T09:27:31.764Z,34.10
2018-07-09T09:30:03.518Z,34.10
2018-07-09T09:32:34.229Z,34.20
2018-07-09T09:35:06.531Z,34.20
2018-07-09T09:37:43.403Z,34.30
2018-07-09T09:40:15.467Z,34.30
2018-07-09T09:42:48.412Z,34.40
2018-07-09T09:45:20.314Z,34.40
2018-07-09T09:47:52.385Z,34.40
2018-07-09T09:50:23.527Z,34.50
2018-07-09T09:52:54.975Z,34.40
2018-07-09T09:55:28.450Z,34.50
2018-07-09T09:58:01.205Z,34.50
2018-07-09T10:00:38.277Z,34.50
2018-07-09T10:03:09.412Z,34.40
2018-07-09T10:22:27.640Z,34.40
2018-07-09T10:25:00.215Z,34.30
2018-07-09T10:27:31.871Z,34.40
2018-07-09T10:30:03.425Z,34.40
2018-07-09T10:32:35.252Z,34.30
2018-07-09T10:35:08.277Z,34.30
2018-07-09T10:37:40.265Z,34.30
2018-07-09T10:40:08.430Z,34.30
2018-07-09T10:42:37.338Z,34.40
2018-07-09T10:45:06.262Z,34.50
2018-07-09T10:47:34.071Z,34.60
2018-07-09T10:50:01.921Z,34.50
2018-07-09T10:52:30.829Z,34.60
2018-07-09T10:54:58.605Z,34.70
2018-07-09T10:57:31.464Z,34.70
2018-07-09T11:00:19.497Z,34.80
2018-07-09T11:02:47.319Z,34.80
2018-07-09T11:05:15.148Z,34.60
2018-07-09T11:07:42.965Z,34.60
2018-07-09T11:10:10.874Z,34.60
2018-07-09T11:12:39.878Z,34.60
2018-07-09T11:15:07.714Z,34.60
2018-07-09T11:17:35.674Z,34.70
2018-07-09T11:20:04.617Z,34.70
2018-07-09T11:22:32.463Z,34.90
2018-07-09T11:25:00.230Z,35.10
2018-07-09T11:27:28.033Z,35.10
2018-07-09T11:29:55.882Z,35.30
2018-07-09T11:32:23.784Z,35.30
2018-07-09T11:34:51.553Z,35.40
2018-07-09T11:37:19.386Z,35.40
2018-07-09T11:56:36.010Z,35.60
2018-07-09T12:15:51.469Z,35.10
2018-07-09T12:35:08.365Z,34.40
2018-07-09T12:37:40.052Z,34.30
2018-07-09T12:40:13.347Z,34.20
2018-07-09T12:42:46.332Z,34.00
2018-07-09T12:45:18.500Z,33.80
2018-07-09T12:47:49.666Z,33.60
2018-07-09T12:50:24.579Z,33.40
2018-07-09T12:52:57.458Z,33.30
2018-07-09T13:15:30.542Z,32.10
2018-07-09T13:17:58.333Z,32.00
2018-07-09T13:20:26.365Z,32.10
2018-07-09T13:22:54.145Z,32.00
2018-07-09T13:25:21.969Z,31.80
2018-07-09T13:27:49.753Z,31.80
2018-07-09T13:30:17.723Z,31.70
2018-07-09T13:32:45.577Z,31.70
2018-07-09T13:35:13.544Z,31.70
2018-07-09T13:37:50.008Z,31.60
2018-07-09T13:40:17.986Z,31.60
2018-07-09T13:42:45.946Z,31.50
2018-07-09T13:45:13.793Z,31.40
2018-07-09T13:47:41.682Z,31.40
2018-07-09T13:50:09.484Z,31.40
2018-07-09T13:52:46.176Z,31.40
2018-07-09T13:55:18.063Z,31.40
2018-07-09T13:57:46.409Z,31.50
2018-07-09T14:00:14.229Z,31.50
2018-07-09T14:02:42.085Z,31.40
2018-07-09T14:05:09.877Z,31.50
2018-07-09T14:07:45.837Z,31.40
2018-07-09T14:10:13.641Z,31.40
2018-07-09T14:12:41.541Z,31.50
2018-07-09T14:15:09.413Z,31.40
2018-07-09T14:17:37.254Z,31.40
2018-07-09T14:20:22.385Z,31.40
2018-07-09T14:22:50.249Z,31.40
2018-07-09T14:25:18.616Z,31.30
2018-07-09T14:27:50.919Z,31.30
2018-07-09T14:30:23.674Z,31.30
2018-07-09T14:32:55.869Z,31.30
2018-07-09T14:35:29.471Z,31.30
2018-07-09T15:08:07.005Z,31.10
2018-07-09T15:10:39.070Z,31.00
2018-07-09T15:29:52.087Z,30.90
2018-07-09T15:32:27.454Z,30.80
2018-07-09T15:51:43.603Z,30.50
2018-07-09T15:54:15.000Z,30.40
2018-07-09T15:56:46.150Z,30.40
2018-07-09T15:59:18.113Z,30.40
2018-07-09T16:01:51.816Z,30.30
2018-07-09T16:04:24.257Z,30.30
2018-07-09T16:06:57.634Z,30.40
2018-07-09T16:10:12.094Z,30.30
2018-07-09T16:19:53.635Z,30.10
2018-07-09T16:22:26.609Z,30.00
2018-07-09T16:25:00.197Z,29.90
2018-07-09T16:27:33.197Z,29.90
2018-07-09T16:30:05.875Z,29.90
2018-07-09T16:32:38.046Z,29.80
2018-07-09T16:35:11.850Z,29.80
2018-07-09T16:37:45.450Z,29.80
2018-07-09T16:40:18.436Z,29.80
2018-07-09T16:42:51.117Z,29.70
2018-07-09T16:45:24.207Z,29.80
2018-07-09T16:47:56.781Z,29.70
2018-07-09T16:50:29.770Z,29.70
2018-07-09T16:53:02.420Z,29.70
2018-07-09T16:55:35.082Z,29.70
2018-07-09T16:58:08.089Z,29.70
2018-07-09T17:00:49.190Z,29.60
2018-07-09T17:03:30.680Z,29.60
2018-07-09T17:06:03.766Z,29.60
2018-07-09T17:08:45.660Z,29.50
2018-07-09T17:11:19.234Z,29.40
2018-07-09T17:13:53.376Z,29.30
2018-07-09T17:16:26.975Z,29.30
2018-07-09T17:18:59.961Z,29.20
2018-07-09T17:21:31.560Z,29.10
2018-07-09T17:24:05.833Z,29.00
2018-07-09T17:26:39.823Z,29.00
2018-07-09T17:29:13.342Z,28.90
2018-07-09T17:31:57.399Z,28.90
2018-07-09T17:34:30.478Z,28.80
2018-07-09T17:37:03.168Z,28.80
2018-07-09T17:39:36.687Z,28.70
2018-07-09T17:42:10.053Z,28.60
2018-07-09T17:44:43.652Z,28.60
2018-07-09T17:50:49.361Z,28.50
2018-07-09T17:53:17.437Z,28.40
2018-07-09T17:56:07.317Z,28.30
2018-07-09T17:58:35.238Z,28.30
2018-07-09T18:01:03.053Z,28.30
2018-07-09T18:03:30.901Z,28.30
2018-07-09T18:05:58.750Z,28.20
2018-07-09T18:08:26.641Z,28.20
2018-07-09T18:10:54.629Z,28.20
2018-07-09T18:13:22.690Z,28.10
2018-07-09T18:15:50.721Z,28.10
2018-07-09T18:25:14.036Z,28.00
2018-07-09T18:37:50.633Z,27.70
2018-07-09T18:40:22.291Z,27.60
2018-07-09T18:42:50.433Z,27.60
2018-07-09T18:45:20.682Z,27.50
2018-07-09T18:47:51.724Z,27.50
2018-07-09T18:50:21.962Z,27.40
2018-07-09T18:52:49.773Z,27.30
2018-07-09T18:55:18.394Z,27.20
2018-07-09T18:57:47.231Z,27.10
2018-07-09T19:00:16.573Z,27.00
2018-07-09T19:02:44.829Z,26.90
2018-07-09T19:05:12.666Z,26.80
2018-07-09T19:07:49.153Z,26.70
2018-07-09T19:10:17.194Z,26.60
2018-07-09T19:12:54.729Z,26.60
2018-07-09T19:15:32.174Z,26.40
2018-07-09T19:18:12.270Z,26.40
2018-07-09T19:21:17.645Z,26.30
2018-07-09T19:23:44.627Z,26.20
2018-07-09T19:29:36.451Z,26.00
2018-07-09T19:32:03.081Z,25.80
2018-07-09T19:34:29.697Z,25.80
2018-07-09T19:36:56.460Z,25.70
2018-07-09T19:39:22.978Z,25.50
2018-07-09T19:41:50.213Z,25.30
2018-07-09T19:44:16.818Z,25.30
2018-07-09T19:46:43.494Z,25.10
2018-07-09T19:49:10.090Z,25.10
2018-07-09T19:51:36.789Z,25.00
2018-07-09T19:54:03.402Z,24.90
2018-07-09T19:56:31.078Z,24.80
2018-07-09T19:59:10.825Z,24.60
2018-07-09T20:01:57.872Z,24.50
2018-07-09T20:07:46.337Z,24.40
2018-07-09T20:10:18.485Z,24.30
2018-07-09T20:12:50.547Z,24.20
2018-07-09T20:15:22.697Z,24.20
2018-07-09T20:17:49.454Z,24.10
2018-07-09T20:20:16.082Z,24.00
2018-07-09T20:22:42.723Z,23.90
2018-07-09T20:25:09.371Z,23.90
2018-07-09T20:27:37.870Z,23.80
2018-07-09T20:30:04.534Z,23.80
2018-07-09T20:32:32.315Z,23.80
2018-07-09T20:34:58.890Z,23.80
2018-07-09T20:37:25.498Z,23.70
2018-07-09T20:39:53.678Z,23.70
2018-07-09T20:42:20.297Z,23.70
2018-07-09T20:44:48.618Z,23.60
2018-07-09T20:47:17.232Z,23.50
2018-07-09T20:49:45.621Z,23.50
2018-07-09T20:52:12.317Z,23.40
2018-07-09T20:54:38.973Z,23.30
2018-07-09T20:57:14.503Z,23.30
2018-07-09T20:59:50.556Z,23.30
2018-07-09T21:02:17.199Z,23.10
2018-07-09T21:04:43.896Z,23.10
2018-07-09T21:07:20.861Z,23.00
2018-07-09T21:09:56.645Z,23.00
2018-07-09T21:12:46.113Z,22.90
2018-07-09T21:15:12.752Z,22.90
2018-07-09T21:17:39.341Z,22.80
2018-07-09T21:20:06.897Z,22.80
2018-07-09T21:22:33.534Z,22.70
2018-07-09T21:25:00.185Z,22.70
2018-07-09T21:27:26.785Z,22.60
2018-07-09T21:29:53.425Z,22.60
2018-07-09T21:32:28.765Z,22.60
2018-07-09T21:34:55.421Z,22.60
2018-07-09T21:37:22.075Z,22.60
2018-07-09T21:39:54.861Z,22.70
2018-07-09T21:42:36.722Z,22.60
2018-07-09T21:45:03.414Z,22.40
2018-07-09T21:47:31.149Z,22.30
2018-07-09T21:49:58.353Z,22.30
2018-07-09T21:52:24.945Z,22.30
2018-07-09T21:54:51.577Z,22.30
2018-07-09T21:57:18.570Z,22.20
2018-07-09T21:59:45.174Z,22.20
2018-07-09T22:02:11.778Z,22.10
2018-07-09T22:04:38.407Z,22.10
2018-07-09T22:07:05.022Z,22.10
2018-07-09T22:09:31.683Z,22.10
2018-07-09T22:12:06.722Z,22.00
2018-07-09T22:14:33.398Z,22.10
2018-07-09T22:16:59.973Z,22.00
2018-07-09T22:19:26.593Z,22.00
2018-07-09T22:21:53.514Z,22.00
2018-07-09T22:24:22.741Z,22.00
2018-07-09T22:26:49.325Z,22.10
2018-07-09T22:29:16.122Z,22.10
2018-07-09T22:31:43.913Z,22.10
2018-07-09T22:34:11.759Z,22.00
2018-07-09T22:36:39.597Z,22.00
2018-07-09T22:39:10.337Z,21.90
2018-07-09T22:41:42.502Z,21.80
2018-07-09T22:44:17.785Z,21.80
2018-07-09T22:46:46.002Z,21.80
2018-07-09T22:49:14.026Z,21.80
2018-07-09T22:51:50.950Z,21.70
2018-07-09T22:54:18.812Z,21.70
2018-07-09T22:56:46.831Z,21.70
2018-07-09T22:59:14.633Z,21.70
2018-07-09T23:01:42.404Z,21.60
2018-07-09T23:04:10.285Z,21.80
2018-07-09T23:06:38.126Z,21.90
2018-07-09T23:12:32.894Z,21.70
2018-07-09T23:17:14.131Z,21.60
2018-07-09T23:21:55.319Z,21.50
2018-07-09T23:26:49.379Z,21.20
2018-07-09T23:29:16.343Z,21.20
2018-07-09T23:31:43.171Z,21.10
2018-07-09T23:34:18.755Z,21.00
2018-07-09T23:36:45.492Z,21.00
2018-07-09T23:41:44.948Z,20.90
2018-07-09T23:46:45.609Z,20.80
2018-07-09T23:49:12.316Z,20.70
2018-07-09T23:51:38.860Z,20.70
2018-07-09T23:54:05.971Z,20.60
2018-07-09T23:58:50.643Z,20.60
